SBOSBO NUE / EDDN
Speedbird OnlineSpeedbird Online NUE / EDDN

Nuremberg Airport
09:19 13.3°C

Location Nuernberg, Germany
Latitude: 49.498699
Longitude: 11.078056
Web Airport Website | Wikipedia
Altitude 319 Meter / 1046 Feet
Distance 805 KM / 500 Miles
from London.
Time Zone UTC +2 hours (Europe/Berlin)
Codes IATA: NUE
ICAO: EDDN
Currency £1 equals EUR 1.15
Runways
RunwayLength (m)Surface
102700Asphalt
282700Asphalt
Radio
TypeDescriptionFrequency
APPNürnberg Director119.475
ATISATIS123.075
GNDNUERNBERG GROUND118.1
RDRMUNCHEN RADAR129.525
TWRNUERNBERG TOWER118.3
Live ATC
METAR EDDN 060650Z AUTO 24003KT 9999 BKN016 BKN021 13/11 Q1029 NOSIG
TAF TAF EDDN 060500Z 0606/0706 22004KT 9999 SCT015 BKN025 BECMG 0607/0609 30006KT BECMG 0614/0616 VRB02KT PROB30 TEMPO 0621/0706 3000 BCFG
Weather As Of 06 Oct 2022 09:19
Description Broken clouds
Wind 6 km/h from South-West (240°)
Cloud Cover 75%
Precipitation Rain: none, Snow: none
Sunrise 07:22
Sunset 18:44
Lounges Dürer Lounge, Main Terminal
Rotations During the last 90 days there were
62 flights from LHR
61 flights to LHR


© 2017-2022 Speedbird Online